Time;durP1;ratioP1;P1;durP2;ratioP2;P2;SDS_P1;SDS_P2;PMS_P1;PMS_P2;Temp;Humidity;BMP_temperature;BMP_pressure;BME280_temperature;BME280_humidity;BME280_pressure;Samples;Min_cycle;Max_cycle;Signal;HPM_P1;HPM_P2
2023/12/09 00:00:28;;;;;;;4.03;1.80;;;5.70;99.90;;;;;;5058325;28;20442;-83
2023/12/09 00:02:55;;;;;;;4.10;1.40;;;5.70;99.90;;;;;;5058760;28;20453;-82
2023/12/09 00:05:22;;;;;;;4.73;2.47;;;5.70;99.90;;;;;;5057879;28;20472;-80
2023/12/09 00:07:49;;;;;;;2.73;1.10;;;5.60;99.90;;;;;;5057786;28;20481;-82
2023/12/09 00:10:15;;;;;;;6.80;2.00;;;5.50;99.90;;;;;;5058295;28;20485;-82
2023/12/09 00:12:43;;;;;;;2.27;2.07;;;5.50;99.90;;;;;;5058320;28;20450;-82
2023/12/09 00:15:10;;;;;;;10.80;3.07;;;5.60;99.90;;;;;;5058050;28;20457;-82
2023/12/09 00:17:37;;;;;;;6.10;2.53;;;5.50;99.90;;;;;;5058789;28;20470;-82
2023/12/09 00:20:05;;;;;;;10.40;2.93;;;5.50;99.90;;;;;;5058659;28;20449;-82
2023/12/09 00:22:32;;;;;;;2.03;1.27;;;5.50;99.90;;;;;;5058139;28;20457;-82
2023/12/09 00:24:59;;;;;;;5.73;1.40;;;5.40;99.90;;;;;;5058322;28;20435;-82
2023/12/09 00:27:26;;;;;;;1.60;1.17;;;5.40;99.90;;;;;;5063750;28;20460;-82
2023/12/09 00:29:54;;;;;;;2.03;1.53;;;5.40;99.90;;;;;;5054743;28;21024;-82
2023/12/09 00:32:21;;;;;;;2.30;2.17;;;5.40;99.90;;;;;;5055345;28;20445;-81
2023/12/09 00:34:48;;;;;;;1.97;1.87;;;5.40;99.90;;;;;;5055948;28;20950;-82
2023/12/09 00:37:15;;;;;;;2.67;2.03;;;5.40;99.90;;;;;;5055917;28;20462;-82
2023/12/09 00:39:41;;;;;;;3.00;1.60;;;5.40;99.90;;;;;;5056303;28;20942;-82
2023/12/09 00:42:07;;;;;;;2.93;1.80;;;5.30;99.90;;;;;;5056099;28;20453;-82
2023/12/09 00:44:34;;;;;;;3.30;2.37;;;5.30;99.90;;;;;;5056724;28;20438;-83
2023/12/09 00:47:02;;;;;;;2.93;1.20;;;5.30;99.90;;;;;;5056458;28;20230;-82
2023/12/09 00:49:29;;;;;;;2.37;1.50;;;5.20;99.90;;;;;;5056789;28;20486;-82
2023/12/09 00:51:55;;;;;;;1.37;1.03;;;5.10;99.90;;;;;;5056749;28;20453;-82
2023/12/09 00:54:22;;;;;;;1.90;1.23;;;5.10;99.90;;;;;;5056442;28;20434;-82
2023/12/09 00:56:49;;;;;;;3.83;1.73;;;5.10;99.90;;;;;;5057076;28;20465;-81
2023/12/09 00:59:15;;;;;;;2.00;1.57;;;5.10;99.90;;;;;;5057341;28;20815;-82
2023/12/09 01:01:42;;;;;;;2.50;1.63;;;5.20;99.90;;;;;;5057580;28;20445;-81
2023/12/09 01:04:10;;;;;;;1.40;1.33;;;5.30;99.90;;;;;;5056962;28;20449;-82
2023/12/09 01:06:37;;;;;;;9.17;1.60;;;5.30;99.90;;;;;;5056811;28;20480;-82
2023/12/09 01:09:04;;;;;;;1.30;1.23;;;5.30;99.90;;;;;;5061466;28;20492;-83
2023/12/09 01:11:30;;;;;;;10.90;2.57;;;5.30;99.90;;;;;;5058455;28;20436;-82
2023/12/09 01:13:57;;;;;;;2.53;1.17;;;5.30;99.90;;;;;;5058747;28;20437;-82
2023/12/09 01:16:24;;;;;;;1.60;1.50;;;5.40;99.90;;;;;;5058175;28;20861;-83
2023/12/09 01:18:51;;;;;;;4.00;1.67;;;5.40;99.90;;;;;;5057659;28;20450;-82
2023/12/09 01:21:19;;;;;;;6.83;2.80;;;5.40;99.90;;;;;;5057500;28;20438;-84
2023/12/09 01:23:46;;;;;;;1.87;1.63;;;5.50;99.90;;;;;;5057671;28;20500;-81
2023/12/09 01:26:13;;;;;;;2.50;1.97;;;5.50;99.90;;;;;;5057592;28;20458;-84
2023/12/09 01:28:40;;;;;;;1.43;1.10;;;5.50;99.90;;;;;;5057968;28;20434;-84
2023/12/09 01:31:06;;;;;;;1.00;0.90;;;5.50;99.90;;;;;;5057006;28;20441;-84
2023/12/09 01:33:33;;;;;;;1.97;1.20;;;5.60;99.90;;;;;;5056993;28;20446;-82
2023/12/09 01:36:00;;;;;;;1.30;1.17;;;5.60;99.90;;;;;;5057239;28;20472;-83
2023/12/09 01:38:28;;;;;;;2.47;1.30;;;5.60;99.90;;;;;;5056786;28;20969;-83
2023/12/09 01:40:55;;;;;;;2.00;1.40;;;5.60;99.90;;;;;;5056970;28;20442;-84
2023/12/09 01:43:23;;;;;;;4.93;1.70;;;5.60;99.90;;;;;;5056798;28;20541;-83
2023/12/09 01:45:52;;;;;;;4.20;1.20;;;5.60;99.90;;;;;;5056820;28;20442;-83
2023/12/09 01:48:20;;;;;;;3.47;1.80;;;5.50;99.90;;;;;;5057271;28;20446;-84
2023/12/09 01:50:47;;;;;;;5.23;1.50;;;5.50;99.90;;;;;;5057346;28;20492;-84
2023/12/09 01:53:14;;;;;;;1.40;1.00;;;5.50;99.90;;;;;;5057759;28;20449;-84
2023/12/09 01:55:43;;;;;;;1.77;0.90;;;5.50;99.90;;;;;;5057741;28;20446;-84
2023/12/09 01:58:10;;;;;;;2.60;1.33;;;5.50;99.90;;;;;;5064508;28;20474;-83
2023/12/09 02:00:39;;;;;;;2.50;1.40;;;5.60;99.90;;;;;;5056187;28;20437;-84
2023/12/09 02:03:05;;;;;;;2.50;1.30;;;5.60;99.90;;;;;;5054174;28;20445;-82
2023/12/09 02:05:32;;;;;;;2.13;1.37;;;5.60;99.90;;;;;;5053842;28;20454;-84
2023/12/09 02:07:59;;;;;;;3.90;2.70;;;5.60;99.90;;;;;;5053822;28;20488;-84
2023/12/09 02:10:26;;;;;;;1.63;1.10;;;5.60;99.90;;;;;;5054465;28;20493;-82
2023/12/09 02:13:01;;;;;;;2.00;0.90;;;5.70;99.90;;;;;;5053896;28;20442;-82
2023/12/09 02:15:35;;;;;;;1.50;1.37;;;5.60;99.90;;;;;;5054208;28;20412;-83
2023/12/09 02:18:04;;;;;;;3.53;1.50;;;5.70;99.90;;;;;;5054107;28;20422;-84
2023/12/09 02:20:31;;;;;;;5.63;2.10;;;5.70;99.90;;;;;;5054236;28;20444;-84
2023/12/09 02:23:05;;;;;;;4.40;1.43;;;5.70;99.90;;;;;;5054360;28;20456;-82
2023/12/09 02:25:31;;;;;;;1.87;1.77;;;5.70;99.90;;;;;;5054469;28;20488;-85
2023/12/09 02:28:01;;;;;;;1.80;1.20;;;5.70;99.90;;;;;;5054365;28;20469;-84
2023/12/09 02:30:35;;;;;;;3.63;1.10;;;5.70;99.90;;;;;;5054620;28;20488;-83
2023/12/09 02:33:02;;;;;;;1.00;0.90;;;5.70;99.90;;;;;;5054342;28;20434;-84
2023/12/09 02:35:31;;;;;;;3.10;1.33;;;5.70;99.90;;;;;;5054397;28;20452;-84
2023/12/09 02:37:59;;;;;;;5.07;1.30;;;5.70;99.90;;;;;;5054281;28;20473;-84
2023/12/09 02:40:29;;;;;;;4.47;1.80;;;5.60;99.90;;;;;;5054876;28;20445;-83
2023/12/09 02:42:57;;;;;;;3.60;1.20;;;5.70;99.90;;;;;;5054730;28;20434;-84
2023/12/09 02:45:23;;;;;;;1.27;0.63;;;5.70;99.90;;;;;;5054141;28;20445;-84
2023/12/09 02:47:50;;;;;;;1.00;0.90;;;5.70;99.90;;;;;;5054208;28;21000;-84
2023/12/09 02:50:17;;;;;;;1.43;1.33;;;5.70;99.90;;;;;;5054320;28;20481;-83
2023/12/09 02:52:44;;;;;;;2.63;1.47;;;5.70;99.90;;;;;;5054433;28;20969;-85
2023/12/09 02:55:11;;;;;;;1.10;1.10;;;5.70;99.90;;;;;;5054852;28;20445;-84
2023/12/09 02:57:39;;;;;;;1.47;0.80;;;5.70;99.90;;;;;;5057432;28;21004;-83
2023/12/09 03:00:07;;;;;;;2.20;1.13;;;5.70;99.90;;;;;;5058363;28;20953;-84
2023/12/09 03:02:34;;;;;;;0.70;0.70;;;5.70;99.90;;;;;;5058469;28;20446;-84
2023/12/09 03:05:01;;;;;;;1.03;0.90;;;5.60;99.90;;;;;;5058839;28;20441;-83
2023/12/09 03:07:27;;;;;;;3.13;1.00;;;5.50;99.90;;;;;;5059120;28;20847;-84
2023/12/09 03:09:54;;;;;;;0.70;0.70;;;5.40;99.90;;;;;;5059672;28;20496;-83
2023/12/09 03:12:21;;;;;;;0.60;0.60;;;5.40;99.90;;;;;;5060287;28;20438;-82
2023/12/09 03:14:49;;;;;;;1.90;0.97;;;5.30;99.90;;;;;;5060328;28;20442;-84
2023/12/09 03:17:16;;;;;;;0.80;0.80;;;5.20;99.90;;;;;;5060278;28;20581;-82
2023/12/09 03:19:42;;;;;;;1.40;1.07;;;5.20;99.90;;;;;;5060217;28;20450;-84
2023/12/09 03:22:09;;;;;;;0.50;0.50;;;5.10;99.90;;;;;;5060108;28;20442;-83
2023/12/09 03:24:36;;;;;;;1.33;0.83;;;5.10;99.90;;;;;;5059957;28;20440;-82
2023/12/09 03:27:03;;;;;;;5.60;1.63;;;5.00;99.90;;;;;;5060971;28;20458;-83
2023/12/09 03:29:30;;;;;;;2.30;1.13;;;5.10;99.90;;;;;;5060156;28;20438;-84
2023/12/09 03:31:58;;;;;;;1.30;0.93;;;5.00;99.90;;;;;;5061446;28;20456;-81
2023/12/09 03:34:24;;;;;;;2.30;0.90;;;5.00;99.90;;;;;;5060921;28;20445;-83
2023/12/09 03:36:51;;;;;;;0.67;0.67;;;4.90;99.90;;;;;;5060574;28;20454;-83
2023/12/09 03:39:18;;;;;;;1.60;0.57;;;4.90;99.90;;;;;;5060583;28;20445;-83
2023/12/09 03:41:44;;;;;;;2.00;0.90;;;4.80;99.90;;;;;;5061350;28;20454;-81
2023/12/09 03:44:10;;;;;;;1.13;0.97;;;4.80;99.90;;;;;;5060749;28;20441;-82
2023/12/09 03:46:37;;;;;;;1.00;0.70;;;4.80;99.90;;;;;;5062251;28;20228;-82
2023/12/09 03:49:05;;;;;;;4.27;1.23;;;4.90;99.90;;;;;;5061198;28;20450;-83
2023/12/09 03:51:32;;;;;;;1.57;1.13;;;4.90;99.90;;;;;;5060215;28;20863;-82
2023/12/09 03:53:59;;;;;;;2.10;1.30;;;4.80;99.90;;;;;;5061327;28;20426;-83
2023/12/09 03:56:26;;;;;;;2.20;0.93;;;4.80;99.90;;;;;;5061820;28;20480;-82
2023/12/09 03:58:53;;;;;;;2.60;0.97;;;4.90;99.90;;;;;;5060818;28;20437;-83
2023/12/09 04:01:22;;;;;;;1.27;1.17;;;4.90;99.90;;;;;;5060515;28;20528;-83
2023/12/09 04:03:49;;;;;;;1.10;1.00;;;4.90;99.90;;;;;;5061197;28;20461;-82
2023/12/09 04:06:17;;;;;;;2.10;1.00;;;4.90;99.90;;;;;;5063667;28;20492;-81
2023/12/09 04:08:44;;;;;;;5.30;0.63;;;4.90;99.90;;;;;;5066601;28;20430;-84
2023/12/09 04:11:11;;;;;;;2.50;1.20;;;4.90;99.90;;;;;;5055563;28;20489;-83
2023/12/09 04:13:37;;;;;;;0.80;0.70;;;4.90;99.90;;;;;;5055506;28;20434;-84
2023/12/09 04:16:06;;;;;;;1.00;0.87;;;5.00;99.90;;;;;;5055667;28;20835;-85
2023/12/09 04:18:33;;;;;;;2.10;1.20;;;5.10;99.90;;;;;;5056001;28;20441;-83
2023/12/09 04:21:00;;;;;;;3.07;0.50;;;5.10;99.90;;;;;;5056436;28;20449;-82
2023/12/09 04:23:28;;;;;;;0.70;0.70;;;5.10;99.90;;;;;;5056637;28;20442;-84
2023/12/09 04:25:55;;;;;;;2.80;1.20;;;5.00;99.90;;;;;;5056589;28;20834;-84
2023/12/09 04:28:21;;;;;;;1.57;1.57;;;5.10;99.90;;;;;;5056883;28;20448;-83
2023/12/09 04:30:48;;;;;;;1.70;0.80;;;5.10;99.90;;;;;;5056756;28;20474;-82
2023/12/09 04:33:15;;;;;;;9.70;1.43;;;5.10;99.90;;;;;;5057106;28;20474;-83
2023/12/09 04:35:42;;;;;;;2.87;1.60;;;5.20;99.90;;;;;;5057001;28;20450;-84
2023/12/09 04:38:08;;;;;;;0.97;0.50;;;5.20;99.90;;;;;;5057553;28;20812;-84
2023/12/09 04:40:36;;;;;;;9.20;1.17;;;5.20;99.90;;;;;;5057437;28;20448;-83
2023/12/09 04:43:03;;;;;;;0.80;0.70;;;5.20;99.90;;;;;;5057984;28;20452;-84
2023/12/09 04:45:30;;;;;;;1.97;0.93;;;5.30;99.90;;;;;;5057557;28;20495;-84
2023/12/09 04:47:57;;;;;;;2.30;1.07;;;5.20;99.90;;;;;;5057682;28;20552;-81
2023/12/09 04:50:23;;;;;;;3.60;1.53;;;5.20;99.90;;;;;;5057905;28;20481;-84
2023/12/09 04:52:50;;;;;;;3.00;0.90;;;5.20;99.90;;;;;;5058486;28;20450;-82
2023/12/09 04:55:17;;;;;;;2.90;1.73;;;5.20;99.90;;;;;;5059057;28;20448;-82
2023/12/09 04:57:45;;;;;;;3.47;0.93;;;5.30;99.90;;;;;;5059407;28;20978;-83
2023/12/09 05:00:13;;;;;;;1.13;0.60;;;5.20;99.90;;;;;;5059525;28;20445;-83
2023/12/09 05:02:39;;;;;;;2.90;1.33;;;5.30;99.90;;;;;;5059028;28;20441;-82
2023/12/09 05:05:07;;;;;;;6.13;0.70;;;5.20;99.90;;;;;;5059216;28;20461;-84
2023/12/09 05:07:33;;;;;;;1.73;0.70;;;5.20;99.90;;;;;;5058895;28;20481;-83
2023/12/09 05:10:00;;;;;;;0.53;0.53;;;5.20;99.90;;;;;;5060387;28;20448;-81
2023/12/09 05:12:27;;;;;;;1.90;1.10;;;5.10;99.90;;;;;;5059472;28;20448;-82
2023/12/09 05:14:55;;;;;;;1.53;1.00;;;5.20;99.90;;;;;;5059142;28;20456;-83
2023/12/09 05:17:22;;;;;;;0.83;0.80;;;5.10;99.90;;;;;;5058893;28;20484;-82
2023/12/09 05:19:49;;;;;;;1.27;1.13;;;5.10;99.90;;;;;;5058664;28;20445;-83
2023/12/09 05:22:15;;;;;;;0.50;0.50;;;5.20;99.90;;;;;;5059635;28;20446;-82
2023/12/09 05:24:42;;;;;;;1.03;0.53;;;5.20;99.90;;;;;;5058497;28;20812;-84
2023/12/09 05:27:09;;;;;;;0.83;0.60;;;5.10;99.90;;;;;;5058715;28;20462;-83
2023/12/09 05:29:36;;;;;;;2.00;1.10;;;5.00;99.90;;;;;;5058469;28;20832;-84
2023/12/09 05:32:04;;;;;;;1.20;0.60;;;5.00;99.90;;;;;;5057927;28;20492;-84
2023/12/09 05:34:31;;;;;;;2.50;0.60;;;5.00;99.90;;;;;;5058234;28;20441;-83
2023/12/09 05:36:58;;;;;;;0.70;0.70;;;5.00;99.90;;;;;;5058278;28;20492;-84
2023/12/09 05:39:26;;;;;;;1.17;0.83;;;5.10;99.90;;;;;;5057929;28;20563;-84
2023/12/09 05:41:53;;;;;;;0.80;0.80;;;5.10;99.90;;;;;;5058160;28;20448;-82
2023/12/09 05:44:19;;;;;;;0.70;0.70;;;5.10;99.90;;;;;;5058212;28;20458;-83
2023/12/09 05:46:46;;;;;;;0.80;0.63;;;5.10;99.90;;;;;;5058192;28;20482;-82
2023/12/09 05:49:14;;;;;;;0.70;0.70;;;5.00;99.90;;;;;;5058131;28;20450;-84
2023/12/09 05:51:42;;;;;;;1.03;0.83;;;5.00;99.90;;;;;;5057873;28;20580;-83
2023/12/09 05:54:08;;;;;;;1.00;0.90;;;5.00;99.90;;;;;;5058086;28;20442;-84
2023/12/09 05:56:35;;;;;;;2.23;1.13;;;5.00;99.90;;;;;;5058229;28;20481;-82
2023/12/09 05:59:02;;;;;;;1.73;0.83;;;5.00;99.90;;;;;;5058174;28;20513;-83
2023/12/09 06:01:29;;;;;;;0.70;0.60;;;5.00;99.90;;;;;;5058555;28;20445;-82
2023/12/09 06:03:55;;;;;;;1.57;0.80;;;5.00;99.90;;;;;;5058519;28;20456;-83
2023/12/09 06:06:23;;;;;;;0.60;0.57;;;5.00;99.90;;;;;;5058192;28;20478;-83
2023/12/09 06:08:50;;;;;;;0.70;0.70;;;5.30;99.90;;;;;;5058687;28;20427;-82
2023/12/09 06:11:17;;;;;;;0.63;0.60;;;5.00;99.90;;;;;;5058614;28;20485;-83
2023/12/09 06:13:43;;;;;;;0.93;0.80;;;5.00;99.90;;;;;;5058646;28;20450;-82
2023/12/09 06:16:16;;;;;;;2.20;1.17;;;5.00;99.90;;;;;;5060432;28;20457;-84
2023/12/09 06:18:43;;;;;;;1.23;0.90;;;5.00;99.90;;;;;;5062854;28;20433;-81
2023/12/09 06:21:19;;;;;;;0.60;0.60;;;4.90;99.90;;;;;;5055148;28;20449;-84
2023/12/09 06:23:47;;;;;;;0.90;0.63;;;4.90;99.90;;;;;;5055263;28;20426;-84
2023/12/09 06:26:13;;;;;;;0.50;0.50;;;4.90;99.90;;;;;;5054827;28;20474;-82
2023/12/09 06:28:40;;;;;;;0.80;0.63;;;4.90;99.90;;;;;;5055737;28;20442;-83
2023/12/09 06:31:07;;;;;;;1.00;0.90;;;4.90;99.90;;;;;;5056853;28;20846;-84
2023/12/09 06:33:34;;;;;;;1.00;0.80;;;4.90;99.90;;;;;;5058281;28;20442;-82
2023/12/09 06:36:01;;;;;;;0.73;0.50;;;4.90;99.90;;;;;;5057896;28;20465;-82
2023/12/09 06:38:29;;;;;;;1.60;1.20;;;4.90;99.90;;;;;;5058308;28;20438;-83
2023/12/09 06:40:57;;;;;;;0.80;0.43;;;5.00;99.90;;;;;;5058602;28;20446;-84
2023/12/09 06:43:24;;;;;;;0.50;0.47;;;4.90;99.90;;;;;;5059300;28;20456;-82
2023/12/09 06:45:50;;;;;;;0.50;0.50;;;4.90;99.90;;;;;;5059230;28;20446;-85
2023/12/09 06:48:17;;;;;;;0.70;0.53;;;5.00;99.90;;;;;;5059732;28;20893;-82
2023/12/09 06:50:44;;;;;;;0.80;0.40;;;5.00;99.90;;;;;;5060081;28;20488;-83
2023/12/09 06:53:13;;;;;;;0.60;0.40;;;4.90;99.90;;;;;;5059652;28;20446;-84
2023/12/09 06:55:40;;;;;;;0.40;0.30;;;5.00;99.90;;;;;;5060280;28;20456;-83
2023/12/09 06:58:08;;;;;;;0.83;0.70;;;5.00;99.90;;;;;;5060327;28;20429;-83
2023/12/09 07:00:34;;;;;;;1.00;0.40;;;5.10;99.90;;;;;;5060370;28;20452;-83
2023/12/09 07:03:01;;;;;;;0.37;0.30;;;5.10;99.90;;;;;;5060260;28;20826;-82
2023/12/09 07:05:28;;;;;;;0.60;0.60;;;5.10;99.90;;;;;;5060104;28;20438;-82
2023/12/09 07:07:55;;;;;;;0.53;0.53;;;5.00;99.90;;;;;;5059257;28;20484;-83
2023/12/09 07:10:21;;;;;;;0.63;0.63;;;5.00;99.90;;;;;;5059499;28;20445;-84
2023/12/09 07:12:48;;;;;;;2.50;1.10;;;4.90;99.90;;;;;;5060114;28;20442;-83
2023/12/09 07:15:16;;;;;;;1.27;0.70;;;4.90;99.90;;;;;;5060212;28;20950;-85
2023/12/09 07:17:43;;;;;;;1.20;0.80;;;4.90;99.90;;;;;;5060050;28;20468;-83
2023/12/09 07:20:10;;;;;;;0.57;0.57;;;5.00;99.90;;;;;;5059813;28;20453;-82
2023/12/09 07:22:37;;;;;;;1.57;0.67;;;5.00;99.90;;;;;;5059142;28;20446;-84
2023/12/09 07:25:04;;;;;;;1.47;0.60;;;5.00;99.90;;;;;;5059421;28;20441;-82
2023/12/09 07:27:31;;;;;;;1.37;1.00;;;5.00;99.90;;;;;;5059134;28;20461;-82
2023/12/09 07:30:00;;;;;;;0.47;0.30;;;5.10;99.90;;;;;;5058977;28;20934;-83
2023/12/09 07:32:28;;;;;;;1.43;1.00;;;5.10;99.90;;;;;;5058811;28;20476;-84
2023/12/09 07:34:55;;;;;;;0.40;0.40;;;5.10;99.90;;;;;;5058708;28;20441;-81
2023/12/09 07:37:22;;;;;;;0.63;0.63;;;5.10;99.90;;;;;;5058933;28;20470;-82
2023/12/09 07:39:48;;;;;;;0.50;0.50;;;5.10;99.90;;;;;;5059878;28;20441;-83
2023/12/09 07:42:15;;;;;;;0.80;0.70;;;5.20;99.90;;;;;;5059055;28;20441;-83
2023/12/09 07:44:42;;;;;;;0.63;0.63;;;5.30;99.90;;;;;;5059966;28;20469;-83
2023/12/09 07:47:08;;;;;;;0.60;0.60;;;5.30;99.90;;;;;;5059745;28;20469;-82
2023/12/09 07:49:36;;;;;;;1.90;0.50;;;5.30;99.90;;;;;;5059458;28;20442;-83
2023/12/09 07:52:04;;;;;;;0.60;0.60;;;5.30;99.90;;;;;;5059206;28;20489;-83
2023/12/09 07:54:30;;;;;;;1.27;0.70;;;5.40;99.90;;;;;;5059257;28;20455;-83
2023/12/09 07:56:58;;;;;;;1.30;0.83;;;5.50;99.90;;;;;;5059185;28;20465;-84
2023/12/09 07:59:25;;;;;;;0.90;0.50;;;5.50;99.90;;;;;;5059049;28;20453;-83
2023/12/09 08:01:51;;;;;;;2.10;1.00;;;5.60;99.90;;;;;;5058960;28;20433;-83
2023/12/09 08:04:18;;;;;;;0.60;0.60;;;5.60;99.90;;;;;;5058600;28;20457;-83
2023/12/09 08:06:46;;;;;;;0.90;0.90;;;5.60;99.90;;;;;;5058464;28;20484;-83
2023/12/09 08:09:13;;;;;;;0.50;0.40;;;5.60;99.90;;;;;;5059158;28;20442;-82
2023/12/09 08:11:40;;;;;;;0.77;0.50;;;5.70;99.90;;;;;;5058363;28;20830;-83
2023/12/09 08:14:06;;;;;;;2.30;0.80;;;5.60;99.90;;;;;;5058441;28;20453;-82
2023/12/09 08:16:33;;;;;;;1.10;0.63;;;5.70;99.90;;;;;;5058034;28;20465;-83
2023/12/09 08:19:00;;;;;;;0.50;0.50;;;5.70;99.90;;;;;;5058198;28;20438;-83
2023/12/09 08:21:27;;;;;;;3.80;0.50;;;5.60;99.90;;;;;;5058034;28;20450;-82
2023/12/09 08:23:55;;;;;;;1.13;0.93;;;5.70;99.90;;;;;;5057825;28;20442;-82
2023/12/09 08:26:22;;;;;;;0.50;0.50;;;5.70;99.90;;;;;;5058738;28;20488;-83
2023/12/09 08:28:48;;;;;;;1.70;0.53;;;5.70;99.90;;;;;;5061945;28;20457;-83
2023/12/09 08:31:15;;;;;;;2.07;0.80;;;5.70;99.90;;;;;;5055279;28;20480;-83
2023/12/09 08:33:42;;;;;;;1.17;0.87;;;5.70;99.90;;;;;;5055243;28;20446;-83
2023/12/09 08:36:10;;;;;;;2.97;0.87;;;5.80;99.90;;;;;;5055014;28;20466;-83
2023/12/09 08:38:37;;;;;;;2.20;0.60;;;5.80;99.90;;;;;;5054755;28;20958;-83
2023/12/09 08:41:05;;;;;;;1.67;1.57;;;5.80;99.90;;;;;;5055487;28;20453;-83
2023/12/09 08:43:31;;;;;;;2.20;0.80;;;5.80;99.90;;;;;;5057116;28;20469;-83
2023/12/09 08:45:58;;;;;;;0.70;0.70;;;5.80;99.90;;;;;;5056174;28;20986;-83
2023/12/09 08:48:25;;;;;;;0.57;0.40;;;5.80;99.90;;;;;;5055928;28;20445;-83
2023/12/09 08:50:52;;;;;;;0.80;0.60;;;5.80;99.90;;;;;;5055733;28;20450;-83
2023/12/09 08:53:18;;;;;;;2.33;0.70;;;5.90;99.90;;;;;;5054864;28;20469;-83
2023/12/09 08:55:45;;;;;;;8.90;1.03;;;5.90;99.90;;;;;;5055139;28;20442;-83
2023/12/09 08:58:13;;;;;;;14.27;0.87;;;5.90;99.90;;;;;;5055400;28;20452;-83
2023/12/09 09:00:40;;;;;;;1.07;0.83;;;6.10;99.90;;;;;;5055473;28;20442;-83
2023/12/09 09:03:07;;;;;;;0.90;0.50;;;6.30;99.90;;;;;;5054969;28;20442;-83
2023/12/09 09:05:34;;;;;;;0.90;0.60;;;6.50;99.90;;;;;;5055054;28;20481;-84
2023/12/09 09:08:01;;;;;;;5.60;0.70;;;6.60;99.90;;;;;;5054492;28;20492;-84
2023/12/09 09:10:28;;;;;;;1.07;0.83;;;6.80;99.90;;;;;;5054896;28;20446;-84
2023/12/09 09:12:54;;;;;;;0.70;0.50;;;6.80;99.90;;;;;;5054814;28;20477;-83
2023/12/09 09:15:23;;;;;;;1.77;0.53;;;6.90;99.90;;;;;;5054642;28;20452;-83
2023/12/09 09:17:50;;;;;;;0.77;0.73;;;6.90;99.90;;;;;;5054912;28;20505;-87
2023/12/09 09:20:17;;;;;;;0.87;0.50;;;6.80;99.90;;;;;;5055086;28;20450;-89
2023/12/09 09:22:43;;;;;;;1.50;0.70;;;6.80;99.90;;;;;;5054787;28;20453;-83
2023/12/09 09:25:10;;;;;;;0.40;0.40;;;6.80;99.90;;;;;;5055576;28;20453;-84
2023/12/09 09:27:37;;;;;;;0.83;0.70;;;6.80;99.90;;;;;;5056044;28;20466;-84
2023/12/09 09:30:04;;;;;;;2.63;1.13;;;6.80;99.90;;;;;;5054869;28;20430;-83
2023/12/09 09:32:32;;;;;;;0.40;0.40;;;6.70;99.90;;;;;;5054648;28;21001;-83
2023/12/09 09:34:59;;;;;;;0.97;0.90;;;6.80;99.90;;;;;;5055103;28;20452;-83
2023/12/09 09:37:26;;;;;;;0.57;0.57;;;6.70;99.90;;;;;;5055371;28;20468;-83
2023/12/09 09:39:53;;;;;;;0.40;0.40;;;6.70;99.90;;;;;;5054839;28;20435;-83
2023/12/09 09:42:26;;;;;;;0.80;0.40;;;6.70;99.90;;;;;;5055451;28;20485;-83
2023/12/09 09:45:05;;;;;;;0.40;0.40;;;6.80;99.90;;;;;;5054034;28;20915;-83
2023/12/09 09:47:36;;;;;;;0.40;0.40;;;6.80;99.90;;;;;;5055182;28;20465;-83
2023/12/09 09:50:04;;;;;;;1.63;0.60;;;6.90;99.90;;;;;;5054528;28;20456;-83
2023/12/09 09:52:32;;;;;;;4.63;1.20;;;6.80;99.90;;;;;;5054182;28;20492;-83
2023/12/09 09:55:00;;;;;;;3.57;0.67;;;6.90;99.90;;;;;;5053981;28;20445;-83
2023/12/09 09:57:27;;;;;;;0.40;0.40;;;7.00;99.90;;;;;;5054266;28;20468;-83
2023/12/09 09:59:56;;;;;;;1.53;0.63;;;7.10;99.90;;;;;;5054026;28;20442;-82
2023/12/09 10:02:25;;;;;;;1.03;0.70;;;7.20;99.90;;;;;;5054478;28;20444;-82
2023/12/09 10:04:54;;;;;;;0.70;0.70;;;7.30;99.90;;;;;;5055172;28;20449;-83
2023/12/09 10:07:21;;;;;;;1.80;0.77;;;7.30;99.90;;;;;;5057982;28;20485;-83
2023/12/09 10:09:48;;;;;;;1.07;0.70;;;7.30;99.90;;;;;;5058246;28;20454;-83
2023/12/09 10:12:14;;;;;;;1.43;0.60;;;7.20;99.90;;;;;;5058057;28;20843;-83
2023/12/09 10:14:42;;;;;;;1.63;1.00;;;7.20;99.90;;;;;;5057748;28;20791;-83
2023/12/09 10:17:10;;;;;;;1.50;0.77;;;7.20;99.90;;;;;;5057650;28;20467;-83
2023/12/09 10:19:37;;;;;;;1.07;0.97;;;7.20;99.90;;;;;;5057365;28;20445;-83
2023/12/09 10:22:07;;;;;;;0.80;0.80;;;7.20;99.90;;;;;;5057723;28;20449;-83
2023/12/09 10:24:33;;;;;;;1.50;0.77;;;7.30;99.90;;;;;;5057709;28;20457;-83
2023/12/09 10:27:00;;;;;;;0.80;0.70;;;7.30;99.90;;;;;;5057539;28;20465;-83
2023/12/09 10:29:27;;;;;;;1.17;0.90;;;7.30;99.90;;;;;;5057723;28;20456;-83
2023/12/09 10:31:54;;;;;;;1.63;0.97;;;7.40;99.90;;;;;;5057662;28;20492;-83
2023/12/09 10:34:21;;;;;;;1.23;0.80;;;7.40;99.90;;;;;;5057309;28;20448;-82
2023/12/09 10:36:48;;;;;;;1.70;1.07;;;7.40;99.90;;;;;;5062551;28;20476;-81
2023/12/09 10:39:16;;;;;;;1.70;0.90;;;7.50;99.90;;;;;;5057786;28;20445;-83
2023/12/09 10:41:46;;;;;;;2.60;1.03;;;7.50;99.90;;;;;;5056731;28;20440;-81
2023/12/09 10:44:12;;;;;;;1.57;1.20;;;7.50;99.90;;;;;;5056882;28;20835;-83
2023/12/09 10:46:39;;;;;;;2.10;0.73;;;7.50;99.90;;;;;;5056649;28;20457;-83
2023/12/09 10:49:07;;;;;;;0.70;0.63;;;7.40;99.90;;;;;;5056952;28;20449;-83
2023/12/09 10:51:33;;;;;;;1.23;1.10;;;7.40;99.90;;;;;;5056670;28;20552;-83
2023/12/09 10:54:00;;;;;;;2.97;0.80;;;7.40;99.90;;;;;;5056762;28;20442;-83
2023/12/09 10:56:29;;;;;;;1.10;1.00;;;7.30;99.90;;;;;;5056673;28;20815;-83
2023/12/09 10:58:57;;;;;;;0.70;0.70;;;7.30;99.90;;;;;;5057860;28;20821;-83
2023/12/09 11:01:24;;;;;;;1.93;1.33;;;7.30;99.90;;;;;;5056868;28;20449;-83
2023/12/09 11:03:50;;;;;;;1.30;1.30;;;7.40;99.90;;;;;;5056731;28;20817;-83
2023/12/09 11:06:19;;;;;;;1.40;1.30;;;7.50;99.90;;;;;;5057011;28;20485;-83
2023/12/09 11:08:47;;;;;;;0.80;0.80;;;7.60;99.90;;;;;;5056452;28;20444;-83
2023/12/09 11:11:14;;;;;;;1.43;1.13;;;7.70;99.90;;;;;;5056479;28;20434;-83
2023/12/09 11:13:46;;;;;;;2.90;1.00;;;7.70;99.90;;;;;;5055920;28;20488;-83
2023/12/09 11:16:16;;;;;;;2.77;1.67;;;7.70;99.90;;;;;;5055856;28;20470;-83
2023/12/09 11:18:50;;;;;;;0.97;0.60;;;7.70;99.90;;;;;;5056089;28;20438;-83
2023/12/09 11:21:18;;;;;;;3.17;1.30;;;7.60;99.90;;;;;;5056232;28;20942;-83
2023/12/09 11:23:47;;;;;;;2.30;0.90;;;7.60;99.90;;;;;;5056350;28;20438;-83
2023/12/09 11:26:18;;;;;;;0.67;0.67;;;7.40;99.90;;;;;;5056072;28;20454;-83
2023/12/09 11:29:03;;;;;;;0.77;0.73;;;7.30;99.90;;;;;;5057079;28;20429;-83
2023/12/09 11:31:35;;;;;;;1.20;1.00;;;7.30;99.90;;;;;;5057099;28;20434;-83
2023/12/09 11:34:02;;;;;;;1.70;0.70;;;7.20;99.90;;;;;;5056857;28;20481;-83
2023/12/09 11:36:30;;;;;;;0.60;0.37;;;7.20;99.90;;;;;;5056772;28;20472;-83
2023/12/09 11:38:57;;;;;;;0.93;0.60;;;7.10;99.90;;;;;;5056532;28;20441;-83
2023/12/09 11:41:25;;;;;;;0.90;0.73;;;7.20;99.90;;;;;;5056554;28;20445;-83
2023/12/09 11:43:53;;;;;;;0.40;0.40;;;7.10;99.90;;;;;;5056930;28;20492;-83
2023/12/09 11:46:22;;;;;;;1.07;0.70;;;7.00;99.90;;;;;;5056475;28;20472;-82
2023/12/09 11:48:50;;;;;;;1.40;0.80;;;7.10;99.90;;;;;;5056743;28;20466;-82
2023/12/09 11:51:17;;;;;;;0.50;0.50;;;7.00;99.90;;;;;;5058041;28;20834;-81
2023/12/09 11:53:53;;;;;;;0.80;0.60;;;7.10;99.90;;;;;;5057845;28;21005;-82
2023/12/09 11:56:20;;;;;;;1.60;0.50;;;7.10;99.90;;;;;;5056493;28;20825;-81
2023/12/09 11:58:47;;;;;;;0.40;0.40;;;7.20;99.90;;;;;;5056567;28;20445;-82
2023/12/09 12:01:13;;;;;;;0.80;0.70;;;7.20;99.90;;;;;;5055971;28;20434;-82
2023/12/09 12:03:41;;;;;;;0.83;0.80;;;7.30;99.90;;;;;;5056474;28;20441;-82
2023/12/09 12:06:09;;;;;;;1.53;0.60;;;7.20;99.90;;;;;;5055696;28;21017;-83
2023/12/09 12:08:35;;;;;;;0.50;0.50;;;7.30;99.90;;;;;;5056557;28;20785;-80
2023/12/09 12:11:03;;;;;;;0.77;0.50;;;7.30;99.90;;;;;;5056797;28;20444;-82
2023/12/09 12:13:30;;;;;;;0.53;0.40;;;7.20;99.90;;;;;;5055924;28;20469;-83
2023/12/09 12:15:57;;;;;;;3.10;0.90;;;7.30;99.90;;;;;;5056241;28;20470;-82
2023/12/09 12:18:24;;;;;;;0.60;0.60;;;7.30;99.90;;;;;;5055767;28;20954;-82
2023/12/09 12:20:52;;;;;;;2.30;0.90;;;7.30;99.90;;;;;;5056043;28;20449;-83
2023/12/09 12:23:20;;;;;;;3.30;1.70;;;7.30;99.90;;;;;;5055897;28;20447;-82
2023/12/09 12:25:50;;;;;;;1.53;0.90;;;7.40;99.90;;;;;;5056032;28;20529;-82
2023/12/09 12:28:17;;;;;;;0.60;0.60;;;7.40;99.90;;;;;;5055738;28;20449;-82
2023/12/09 12:30:44;;;;;;;0.90;0.60;;;7.40;99.90;;;;;;5056049;28;20492;-82
2023/12/09 12:33:12;;;;;;;1.03;0.60;;;7.50;99.90;;;;;;5057014;28;20477;-86
2023/12/09 12:35:39;;;;;;;2.23;0.97;;;7.50;99.90;;;;;;5058772;28;20446;-84
2023/12/09 12:38:07;;;;;;;0.70;0.70;;;7.60;99.90;;;;;;5054970;28;20438;-81
2023/12/09 12:40:34;;;;;;;1.10;0.63;;;7.60;99.90;;;;;;5055599;28;20448;-82
2023/12/09 12:43:04;;;;;;;1.37;0.60;;;7.70;99.90;;;;;;5054965;28;20442;-82
2023/12/09 12:45:33;;;;;;;0.77;0.50;;;7.60;99.90;;;;;;5055309;28;20485;-82
2023/12/09 12:47:59;;;;;;;0.60;0.50;;;7.50;99.90;;;;;;5067809;28;20523;-82
2023/12/09 12:50:26;;;;;;;0.47;0.47;;;7.50;99.90;;;;;;5054764;28;20449;-81
2023/12/09 12:52:53;;;;;;;0.50;0.43;;;7.50;99.90;;;;;;5054444;28;20476;-82
2023/12/09 12:55:22;;;;;;;0.40;0.30;;;7.50;99.90;;;;;;5054741;28;20446;-83
2023/12/09 12:57:49;;;;;;;2.43;0.67;;;7.50;99.90;;;;;;5054523;28;20842;-83